sensor_id;sensor_type;location;lat;lon;timestamp;P1;durP1;ratioP1;P2;durP2;ratioP2
789;SDS011;378;48.844;9.156;2023-04-28T00:01:43;11.68;;;5.78;;
789;SDS011;378;48.844;9.156;2023-04-28T00:04:11;12.82;;;6.22;;
789;SDS011;378;48.844;9.156;2023-04-28T00:06:38;11.68;;;5.25;;
789;SDS011;378;48.844;9.156;2023-04-28T00:09:05;11.43;;;5.82;;
789;SDS011;378;48.844;9.156;2023-04-28T00:11:35;13.07;;;5.50;;
789;SDS011;378;48.844;9.156;2023-04-28T00:14:01;9.07;;;5.50;;
789;SDS011;378;48.844;9.156;2023-04-28T00:16:28;13.00;;;5.60;;
789;SDS011;378;48.844;9.156;2023-04-28T00:18:55;11.93;;;5.30;;
789;SDS011;378;48.844;9.156;2023-04-28T00:21:23;12.32;;;4.70;;
789;SDS011;378;48.844;9.156;2023-04-28T00:23:50;11.27;;;4.95;;
789;SDS011;378;48.844;9.156;2023-04-28T00:26:17;13.57;;;5.53;;
789;SDS011;378;48.844;9.156;2023-04-28T00:28:44;10.02;;;5.07;;
789;SDS011;378;48.844;9.156;2023-04-28T00:31:11;11.25;;;5.20;;
789;SDS011;378;48.844;9.156;2023-04-28T00:33:38;12.88;;;5.15;;
789;SDS011;378;48.844;9.156;2023-04-28T00:36:05;11.98;;;5.30;;
789;SDS011;378;48.844;9.156;2023-04-28T00:38:34;14.18;;;5.18;;
789;SDS011;378;48.844;9.156;2023-04-28T00:41:01;9.65;;;4.75;;
789;SDS011;378;48.844;9.156;2023-04-28T00:43:28;11.25;;;4.50;;
789;SDS011;378;48.844;9.156;2023-04-28T00:45:55;12.05;;;4.50;;
789;SDS011;378;48.844;9.156;2023-04-28T00:48:22;14.02;;;4.75;;
789;SDS011;378;48.844;9.156;2023-04-28T00:50:49;10.52;;;4.60;;
789;SDS011;378;48.844;9.156;2023-04-28T00:53:16;9.05;;;4.43;;
789;SDS011;378;48.844;9.156;2023-04-28T00:55:44;9.32;;;3.97;;
789;SDS011;378;48.844;9.156;2023-04-28T00:58:13;11.40;;;4.70;;
789;SDS011;378;48.844;9.156;2023-04-28T01:00:40;8.25;;;4.35;;
789;SDS011;378;48.844;9.156;2023-04-28T01:03:07;11.30;;;4.43;;
789;SDS011;378;48.844;9.156;2023-04-28T01:05:34;9.73;;;4.45;;
789;SDS011;378;48.844;9.156;2023-04-28T01:08:02;8.75;;;4.57;;
789;SDS011;378;48.844;9.156;2023-04-28T01:10:29;11.50;;;4.28;;
789;SDS011;378;48.844;9.156;2023-04-28T01:12:57;11.15;;;5.25;;
789;SDS011;378;48.844;9.156;2023-04-28T01:15:24;11.05;;;4.57;;
789;SDS011;378;48.844;9.156;2023-04-28T01:17:52;10.30;;;4.68;;
789;SDS011;378;48.844;9.156;2023-04-28T01:20:18;7.72;;;4.80;;
789;SDS011;378;48.844;9.156;2023-04-28T01:22:45;10.60;;;4.15;;
789;SDS011;378;48.844;9.156;2023-04-28T01:25:13;10.57;;;5.00;;
789;SDS011;378;48.844;9.156;2023-04-28T01:27:40;9.52;;;4.90;;
789;SDS011;378;48.844;9.156;2023-04-28T01:30:08;8.90;;;5.22;;
789;SDS011;378;48.844;9.156;2023-04-28T01:32:35;11.85;;;5.20;;
789;SDS011;378;48.844;9.156;2023-04-28T01:35:02;9.15;;;4.70;;
789;SDS011;378;48.844;9.156;2023-04-28T01:37:29;8.40;;;4.63;;
789;SDS011;378;48.844;9.156;2023-04-28T01:39:56;15.63;;;4.85;;
789;SDS011;378;48.844;9.156;2023-04-28T01:42:24;7.88;;;4.45;;
789;SDS011;378;48.844;9.156;2023-04-28T01:44:51;16.95;;;4.88;;
789;SDS011;378;48.844;9.156;2023-04-28T01:47:18;9.15;;;4.65;;
789;SDS011;378;48.844;9.156;2023-04-28T01:49:45;9.60;;;4.88;;
789;SDS011;378;48.844;9.156;2023-04-28T01:52:14;11.32;;;5.00;;
789;SDS011;378;48.844;9.156;2023-04-28T01:57:45;12.02;;;5.00;;
789;SDS011;378;48.844;9.156;2023-04-28T02:00:12;16.02;;;4.97;;
789;SDS011;378;48.844;9.156;2023-04-28T02:02:39;7.88;;;4.40;;
789;SDS011;378;48.844;9.156;2023-04-28T02:05:06;9.88;;;5.20;;
789;SDS011;378;48.844;9.156;2023-04-28T02:07:33;9.45;;;4.82;;
789;SDS011;378;48.844;9.156;2023-04-28T02:10:00;9.68;;;4.25;;
789;SDS011;378;48.844;9.156;2023-04-28T02:12:27;7.53;;;4.53;;
789;SDS011;378;48.844;9.156;2023-04-28T02:14:55;8.68;;;4.88;;
789;SDS011;378;48.844;9.156;2023-04-28T02:17:22;11.15;;;5.00;;
789;SDS011;378;48.844;9.156;2023-04-28T02:19:53;10.02;;;4.97;;
789;SDS011;378;48.844;9.156;2023-04-28T02:22:20;12.43;;;5.20;;
789;SDS011;378;48.844;9.156;2023-04-28T02:24:47;9.20;;;4.85;;
789;SDS011;378;48.844;9.156;2023-04-28T02:27:14;11.02;;;4.95;;
789;SDS011;378;48.844;9.156;2023-04-28T02:29:41;12.35;;;5.03;;
789;SDS011;378;48.844;9.156;2023-04-28T02:32:09;7.70;;;4.50;;
789;SDS011;378;48.844;9.156;2023-04-28T02:34:36;10.57;;;5.32;;
789;SDS011;378;48.844;9.156;2023-04-28T02:37:03;13.85;;;4.80;;
789;SDS011;378;48.844;9.156;2023-04-28T02:39:29;10.20;;;5.43;;
789;SDS011;378;48.844;9.156;2023-04-28T02:41:57;12.57;;;4.88;;
789;SDS011;378;48.844;9.156;2023-04-28T02:44:24;9.10;;;4.75;;
789;SDS011;378;48.844;9.156;2023-04-28T02:46:51;9.60;;;5.00;;
789;SDS011;378;48.844;9.156;2023-04-28T02:49:19;9.13;;;4.38;;
789;SDS011;378;48.844;9.156;2023-04-28T02:51:46;7.90;;;5.07;;
789;SDS011;378;48.844;9.156;2023-04-28T02:54:12;9.43;;;5.10;;
789;SDS011;378;48.844;9.156;2023-04-28T02:56:39;11.85;;;5.32;;
789;SDS011;378;48.844;9.156;2023-04-28T02:59:06;11.18;;;4.72;;
789;SDS011;378;48.844;9.156;2023-04-28T03:01:33;10.23;;;5.00;;
789;SDS011;378;48.844;9.156;2023-04-28T03:04:00;9.02;;;5.20;;
789;SDS011;378;48.844;9.156;2023-04-28T03:06:28;9.50;;;5.20;;
789;SDS011;378;48.844;9.156;2023-04-28T03:08:55;9.73;;;5.20;;
789;SDS011;378;48.844;9.156;2023-04-28T03:11:22;10.23;;;5.68;;
789;SDS011;378;48.844;9.156;2023-04-28T03:13:50;9.98;;;5.68;;
789;SDS011;378;48.844;9.156;2023-04-28T03:16:16;13.38;;;5.72;;
789;SDS011;378;48.844;9.156;2023-04-28T03:18:43;13.10;;;5.43;;
789;SDS011;378;48.844;9.156;2023-04-28T03:21:10;9.82;;;5.57;;
789;SDS011;378;48.844;9.156;2023-04-28T03:23:38;13.05;;;5.43;;
789;SDS011;378;48.844;9.156;2023-04-28T03:26:05;8.68;;;5.53;;
789;SDS011;378;48.844;9.156;2023-04-28T03:28:32;14.07;;;6.30;;
789;SDS011;378;48.844;9.156;2023-04-28T03:30:59;11.95;;;5.63;;
789;SDS011;378;48.844;9.156;2023-04-28T03:33:26;9.55;;;5.28;;
789;SDS011;378;48.844;9.156;2023-04-28T03:35:53;11.77;;;5.38;;
789;SDS011;378;48.844;9.156;2023-04-28T03:38:20;9.32;;;5.65;;
789;SDS011;378;48.844;9.156;2023-04-28T03:40:48;13.10;;;5.53;;
789;SDS011;378;48.844;9.156;2023-04-28T03:43:15;11.00;;;5.80;;
789;SDS011;378;48.844;9.156;2023-04-28T03:45:42;9.23;;;5.32;;
789;SDS011;378;48.844;9.156;2023-04-28T03:48:09;10.50;;;5.90;;
789;SDS011;378;48.844;9.156;2023-04-28T03:50:36;9.55;;;5.68;;
789;SDS011;378;48.844;9.156;2023-04-28T03:53:04;12.80;;;5.90;;
789;SDS011;378;48.844;9.156;2023-04-28T03:55:31;8.68;;;5.38;;
789;SDS011;378;48.844;9.156;2023-04-28T03:57:59;14.52;;;6.30;;
789;SDS011;378;48.844;9.156;2023-04-28T04:00:26;13.13;;;5.75;;
789;SDS011;378;48.844;9.156;2023-04-28T04:02:53;16.23;;;6.25;;
789;SDS011;378;48.844;9.156;2023-04-28T04:05:20;10.93;;;5.85;;
789;SDS011;378;48.844;9.156;2023-04-28T04:07:47;13.70;;;6.22;;
789;SDS011;378;48.844;9.156;2023-04-28T04:10:14;13.45;;;5.93;;
789;SDS011;378;48.844;9.156;2023-04-28T04:12:41;11.25;;;5.80;;
789;SDS011;378;48.844;9.156;2023-04-28T04:15:09;11.68;;;6.03;;
789;SDS011;378;48.844;9.156;2023-04-28T04:17:36;16.77;;;6.28;;
789;SDS011;378;48.844;9.156;2023-04-28T04:20:03;15.35;;;6.78;;
789;SDS011;378;48.844;9.156;2023-04-28T04:22:31;13.55;;;6.05;;
789;SDS011;378;48.844;9.156;2023-04-28T04:24:58;11.30;;;5.95;;
789;SDS011;378;48.844;9.156;2023-04-28T04:27:25;13.07;;;6.85;;
789;SDS011;378;48.844;9.156;2023-04-28T04:29:52;13.70;;;6.55;;
789;SDS011;378;48.844;9.156;2023-04-28T04:32:20;13.15;;;6.85;;
789;SDS011;378;48.844;9.156;2023-04-28T04:34:47;14.32;;;6.50;;
789;SDS011;378;48.844;9.156;2023-04-28T04:37:13;13.85;;;7.03;;
789;SDS011;378;48.844;9.156;2023-04-28T04:39:40;17.25;;;6.28;;
789;SDS011;378;48.844;9.156;2023-04-28T04:42:07;14.05;;;6.47;;
789;SDS011;378;48.844;9.156;2023-04-28T04:44:34;16.38;;;6.68;;
789;SDS011;378;48.844;9.156;2023-04-28T04:47:01;14.10;;;6.40;;
789;SDS011;378;48.844;9.156;2023-04-28T04:49:29;12.85;;;6.03;;
789;SDS011;378;48.844;9.156;2023-04-28T04:51:56;14.48;;;6.63;;
789;SDS011;378;48.844;9.156;2023-04-28T04:54:23;17.30;;;6.90;;
789;SDS011;378;48.844;9.156;2023-04-28T04:56:50;10.93;;;6.65;;
789;SDS011;378;48.844;9.156;2023-04-28T04:59:17;17.48;;;6.60;;
789;SDS011;378;48.844;9.156;2023-04-28T05:01:44;12.38;;;6.70;;
789;SDS011;378;48.844;9.156;2023-04-28T05:04:10;16.48;;;7.38;;
789;SDS011;378;48.844;9.156;2023-04-28T05:06:39;15.07;;;6.90;;
789;SDS011;378;48.844;9.156;2023-04-28T05:09:05;10.85;;;6.15;;
789;SDS011;378;48.844;9.156;2023-04-28T05:11:33;12.02;;;6.70;;
789;SDS011;378;48.844;9.156;2023-04-28T05:13:59;15.13;;;7.28;;
789;SDS011;378;48.844;9.156;2023-04-28T05:16:26;14.80;;;7.43;;
789;SDS011;378;48.844;9.156;2023-04-28T05:18:53;18.90;;;6.15;;
789;SDS011;378;48.844;9.156;2023-04-28T05:21:20;20.67;;;7.57;;
789;SDS011;378;48.844;9.156;2023-04-28T05:23:48;11.70;;;6.78;;
789;SDS011;378;48.844;9.156;2023-04-28T05:26:15;12.85;;;6.55;;
789;SDS011;378;48.844;9.156;2023-04-28T05:28:42;9.95;;;6.80;;
789;SDS011;378;48.844;9.156;2023-04-28T05:31:09;12.40;;;6.15;;
789;SDS011;378;48.844;9.156;2023-04-28T05:33:35;13.88;;;6.72;;
789;SDS011;378;48.844;9.156;2023-04-28T05:36:02;11.68;;;6.28;;
789;SDS011;378;48.844;9.156;2023-04-28T05:38:30;16.10;;;6.85;;
789;SDS011;378;48.844;9.156;2023-04-28T05:40:59;13.05;;;7.28;;
789;SDS011;378;48.844;9.156;2023-04-28T05:43:26;12.02;;;7.10;;
789;SDS011;378;48.844;9.156;2023-04-28T05:45:53;13.57;;;6.78;;
789;SDS011;378;48.844;9.156;2023-04-28T05:48:20;13.02;;;6.75;;
789;SDS011;378;48.844;9.156;2023-04-28T05:50:47;11.45;;;6.30;;
789;SDS011;378;48.844;9.156;2023-04-28T05:53:13;13.77;;;6.05;;
789;SDS011;378;48.844;9.156;2023-04-28T05:55:40;12.55;;;6.28;;
789;SDS011;378;48.844;9.156;2023-04-28T05:58:08;12.95;;;6.43;;
789;SDS011;378;48.844;9.156;2023-04-28T06:00:35;14.85;;;6.22;;
789;SDS011;378;48.844;9.156;2023-04-28T06:03:02;12.85;;;6.88;;
789;SDS011;378;48.844;9.156;2023-04-28T06:05:29;15.95;;;6.88;;
789;SDS011;378;48.844;9.156;2023-04-28T06:07:56;17.13;;;7.50;;
789;SDS011;378;48.844;9.156;2023-04-28T06:10:24;23.15;;;8.77;;
789;SDS011;378;48.844;9.156;2023-04-28T06:12:51;20.67;;;9.38;;
789;SDS011;378;48.844;9.156;2023-04-28T06:15:19;113.00;;;16.38;;
789;SDS011;378;48.844;9.156;2023-04-28T06:17:46;55.85;;;12.82;;
789;SDS011;378;48.844;9.156;2023-04-28T06:20:13;32.25;;;11.23;;
789;SDS011;378;48.844;9.156;2023-04-28T06:22:40;21.40;;;9.55;;
789;SDS011;378;48.844;9.156;2023-04-28T06:25:07;25.92;;;8.82;;
789;SDS011;378;48.844;9.156;2023-04-28T06:27:34;24.75;;;9.85;;
789;SDS011;378;48.844;9.156;2023-04-28T06:30:01;18.45;;;9.30;;
789;SDS011;378;48.844;9.156;2023-04-28T06:32:30;17.35;;;9.15;;
789;SDS011;378;48.844;9.156;2023-04-28T06:34:56;19.38;;;9.20;;
789;SDS011;378;48.844;9.156;2023-04-28T06:37:23;21.88;;;10.13;;
789;SDS011;378;48.844;9.156;2023-04-28T06:39:50;19.58;;;10.20;;
789;SDS011;378;48.844;9.156;2023-04-28T06:42:17;19.77;;;8.93;;
789;SDS011;378;48.844;9.156;2023-04-28T06:44:44;14.57;;;7.70;;
789;SDS011;378;48.844;9.156;2023-04-28T06:47:11;17.05;;;7.35;;
789;SDS011;378;48.844;9.156;2023-04-28T06:49:39;22.67;;;7.95;;
789;SDS011;378;48.844;9.156;2023-04-28T06:52:07;12.25;;;6.97;;
789;SDS011;378;48.844;9.156;2023-04-28T06:54:34;14.65;;;7.88;;
789;SDS011;378;48.844;9.156;2023-04-28T06:57:02;17.55;;;7.90;;
789;SDS011;378;48.844;9.156;2023-04-28T06:59:29;14.15;;;8.02;;
789;SDS011;378;48.844;9.156;2023-04-28T07:01:56;16.10;;;7.65;;
789;SDS011;378;48.844;9.156;2023-04-28T07:04:23;18.38;;;7.68;;
789;SDS011;378;48.844;9.156;2023-04-28T07:06:52;19.98;;;7.63;;
789;SDS011;378;48.844;9.156;2023-04-28T07:09:19;17.30;;;8.00;;
789;SDS011;378;48.844;9.156;2023-04-28T07:11:46;15.77;;;7.90;;
789;SDS011;378;48.844;9.156;2023-04-28T07:14:13;18.08;;;8.88;;
789;SDS011;378;48.844;9.156;2023-04-28T07:16:39;21.58;;;8.30;;
789;SDS011;378;48.844;9.156;2023-04-28T07:19:06;21.13;;;8.90;;
789;SDS011;378;48.844;9.156;2023-04-28T07:21:33;17.95;;;9.40;;
789;SDS011;378;48.844;9.156;2023-04-28T07:24:01;15.77;;;8.57;;
789;SDS011;378;48.844;9.156;2023-04-28T07:26:28;18.15;;;9.50;;
789;SDS011;378;48.844;9.156;2023-04-28T07:28:56;17.13;;;9.23;;
789;SDS011;378;48.844;9.156;2023-04-28T07:31:22;24.45;;;10.18;;
789;SDS011;378;48.844;9.156;2023-04-28T07:33:50;24.55;;;9.90;;
789;SDS011;378;48.844;9.156;2023-04-28T07:36:16;23.00;;;10.15;;
789;SDS011;378;48.844;9.156;2023-04-28T07:38:43;26.65;;;10.68;;
789;SDS011;378;48.844;9.156;2023-04-28T07:41:12;24.05;;;10.68;;
789;SDS011;378;48.844;9.156;2023-04-28T07:43:39;20.50;;;10.65;;
789;SDS011;378;48.844;9.156;2023-04-28T07:46:06;26.38;;;10.98;;
789;SDS011;378;48.844;9.156;2023-04-28T07:48:33;19.52;;;9.85;;
789;SDS011;378;48.844;9.156;2023-04-28T07:51:00;21.60;;;10.40;;
789;SDS011;378;48.844;9.156;2023-04-28T07:53:27;23.38;;;11.27;;
789;SDS011;378;48.844;9.156;2023-04-28T07:55:54;26.50;;;11.75;;
789;SDS011;378;48.844;9.156;2023-04-28T07:58:22;19.67;;;10.60;;
789;SDS011;378;48.844;9.156;2023-04-28T08:00:49;25.52;;;10.90;;
789;SDS011;378;48.844;9.156;2023-04-28T08:03:16;22.52;;;10.63;;
789;SDS011;378;48.844;9.156;2023-04-28T08:05:43;17.73;;;10.27;;
789;SDS011;378;48.844;9.156;2023-04-28T08:08:10;25.80;;;11.13;;
789;SDS011;378;48.844;9.156;2023-04-28T08:10:36;22.98;;;11.50;;
789;SDS011;378;48.844;9.156;2023-04-28T08:13:06;20.45;;;10.73;;
789;SDS011;378;48.844;9.156;2023-04-28T08:15:34;18.17;;;10.38;;
789;SDS011;378;48.844;9.156;2023-04-28T08:18:01;23.00;;;11.45;;
789;SDS011;378;48.844;9.156;2023-04-28T08:20:28;21.60;;;11.30;;
789;SDS011;378;48.844;9.156;2023-04-28T08:22:56;21.33;;;11.88;;
789;SDS011;378;48.844;9.156;2023-04-28T08:25:23;26.40;;;11.73;;
789;SDS011;378;48.844;9.156;2023-04-28T08:27:50;21.90;;;11.52;;
789;SDS011;378;48.844;9.156;2023-04-28T08:30:17;19.13;;;10.25;;
789;SDS011;378;48.844;9.156;2023-04-28T08:32:45;16.98;;;9.77;;
789;SDS011;378;48.844;9.156;2023-04-28T08:35:12;14.80;;;9.20;;
789;SDS011;378;48.844;9.156;2023-04-28T08:37:39;17.50;;;9.30;;
789;SDS011;378;48.844;9.156;2023-04-28T08:40:07;15.35;;;8.23;;
789;SDS011;378;48.844;9.156;2023-04-28T08:42:34;14.85;;;7.95;;
789;SDS011;378;48.844;9.156;2023-04-28T08:45:02;13.02;;;7.45;;
789;SDS011;378;48.844;9.156;2023-04-28T08:47:32;14.77;;;8.68;;
789;SDS011;378;48.844;9.156;2023-04-28T08:50:02;19.95;;;8.70;;
789;SDS011;378;48.844;9.156;2023-04-28T08:52:30;13.43;;;7.63;;
789;SDS011;378;48.844;9.156;2023-04-28T08:54:58;12.65;;;7.07;;
789;SDS011;378;48.844;9.156;2023-04-28T08:57:27;10.65;;;6.60;;
789;SDS011;378;48.844;9.156;2023-04-28T09:00:01;13.35;;;6.57;;
789;SDS011;378;48.844;9.156;2023-04-28T09:02:28;8.93;;;5.75;;
789;SDS011;378;48.844;9.156;2023-04-28T09:04:55;11.18;;;6.10;;
789;SDS011;378;48.844;9.156;2023-04-28T09:07:23;9.07;;;5.55;;
789;SDS011;378;48.844;9.156;2023-04-28T09:10:00;10.57;;;6.10;;
789;SDS011;378;48.844;9.156;2023-04-28T09:12:41;11.63;;;6.07;;
789;SDS011;378;48.844;9.156;2023-04-28T09:15:08;12.05;;;6.45;;
789;SDS011;378;48.844;9.156;2023-04-28T09:17:46;13.35;;;7.40;;
789;SDS011;378;48.844;9.156;2023-04-28T09:20:18;13.77;;;7.00;;
789;SDS011;378;48.844;9.156;2023-04-28T09:22:48;11.13;;;6.72;;
789;SDS011;378;48.844;9.156;2023-04-28T09:25:15;13.85;;;7.05;;
789;SDS011;378;48.844;9.156;2023-04-28T09:27:43;11.88;;;7.20;;
789;SDS011;378;48.844;9.156;2023-04-28T09:30:11;14.23;;;8.10;;
789;SDS011;378;48.844;9.156;2023-04-28T09:32:38;12.40;;;8.35;;
789;SDS011;378;48.844;9.156;2023-04-28T09:35:05;12.25;;;7.43;;
789;SDS011;378;48.844;9.156;2023-04-28T09:37:32;11.88;;;7.25;;
789;SDS011;378;48.844;9.156;2023-04-28T09:40:06;11.57;;;5.90;;
789;SDS011;378;48.844;9.156;2023-04-28T09:42:35;10.80;;;5.30;;
789;SDS011;378;48.844;9.156;2023-04-28T09:45:03;10.15;;;5.82;;
789;SDS011;378;48.844;9.156;2023-04-28T09:47:32;9.30;;;5.53;;
789;SDS011;378;48.844;9.156;2023-04-28T09:50:00;11.68;;;5.95;;
789;SDS011;378;48.844;9.156;2023-04-28T09:52:27;9.95;;;5.72;;
789;SDS011;378;48.844;9.156;2023-04-28T09:54:55;14.02;;;6.07;;
789;SDS011;378;48.844;9.156;2023-04-28T09:57:23;8.93;;;5.63;;
789;SDS011;378;48.844;9.156;2023-04-28T09:59:51;9.32;;;5.55;;
789;SDS011;378;48.844;9.156;2023-04-28T10:02:19;6.68;;;4.30;;
789;SDS011;378;48.844;9.156;2023-04-28T10:04:47;8.95;;;4.20;;
789;SDS011;378;48.844;9.156;2023-04-28T10:07:15;4.47;;;3.38;;
789;SDS011;378;48.844;9.156;2023-04-28T10:09:44;7.15;;;4.03;;
789;SDS011;378;48.844;9.156;2023-04-28T10:12:12;8.68;;;3.45;;
789;SDS011;378;48.844;9.156;2023-04-28T10:14:41;5.55;;;3.10;;
789;SDS011;378;48.844;9.156;2023-04-28T10:17:08;9.35;;;4.28;;
789;SDS011;378;48.844;9.156;2023-04-28T10:19:36;8.10;;;4.53;;
789;SDS011;378;48.844;9.156;2023-04-28T10:22:08;6.50;;;3.20;;
789;SDS011;378;48.844;9.156;2023-04-28T10:24:51;6.20;;;3.90;;
789;SDS011;378;48.844;9.156;2023-04-28T10:27:30;6.20;;;3.65;;
789;SDS011;378;48.844;9.156;2023-04-28T10:30:11;3.97;;;2.95;;
789;SDS011;378;48.844;9.156;2023-04-28T10:32:39;3.83;;;2.40;;
789;SDS011;378;48.844;9.156;2023-04-28T10:38:07;1.58;;;1.25;;
789;SDS011;378;48.844;9.156;2023-04-28T10:40:36;3.33;;;1.50;;
789;SDS011;378;48.844;9.156;2023-04-28T10:43:05;3.08;;;1.00;;
789;SDS011;378;48.844;9.156;2023-04-28T10:45:58;1.10;;;0.90;;
789;SDS011;378;48.844;9.156;2023-04-28T10:48:51;1.80;;;1.08;;
789;SDS011;378;48.844;9.156;2023-04-28T10:51:27;3.03;;;1.27;;
789;SDS011;378;48.844;9.156;2023-04-28T10:54:14;1.48;;;0.90;;
789;SDS011;378;48.844;9.156;2023-04-28T10:59:45;4.93;;;1.00;;
789;SDS011;378;48.844;9.156;2023-04-28T11:05:17;0.85;;;0.60;;
789;SDS011;378;48.844;9.156;2023-04-28T11:13:54;1.88;;;0.60;;
789;SDS011;378;48.844;9.156;2023-04-28T11:16:47;1.00;;;0.60;;
789;SDS011;378;48.844;9.156;2023-04-28T11:19:16;0.95;;;0.40;;
789;SDS011;378;48.844;9.156;2023-04-28T11:21:45;1.83;;;0.60;;
789;SDS011;378;48.844;9.156;2023-04-28T11:24:12;0.70;;;0.70;;
789;SDS011;378;48.844;9.156;2023-04-28T11:26:40;1.27;;;0.63;;
789;SDS011;378;48.844;9.156;2023-04-28T11:29:07;0.80;;;0.60;;
789;SDS011;378;48.844;9.156;2023-04-28T11:31:35;1.77;;;0.60;;
789;SDS011;378;48.844;9.156;2023-04-28T11:34:03;0.50;;;0.50;;
789;SDS011;378;48.844;9.156;2023-04-28T11:36:33;0.95;;;0.52;;
789;SDS011;378;48.844;9.156;2023-04-28T11:39:02;0.65;;;0.55;;
789;SDS011;378;48.844;9.156;2023-04-28T11:41:31;2.65;;;0.60;;
789;SDS011;378;48.844;9.156;2023-04-28T11:43:58;1.05;;;0.68;;
789;SDS011;378;48.844;9.156;2023-04-28T11:46:25;0.60;;;0.60;;
789;SDS011;378;48.844;9.156;2023-04-28T11:48:58;0.60;;;0.60;;
789;SDS011;378;48.844;9.156;2023-04-28T11:51:29;0.93;;;0.52;;
789;SDS011;378;48.844;9.156;2023-04-28T11:53:59;0.77;;;0.60;;
789;SDS011;378;48.844;9.156;2023-04-28T11:56:26;1.42;;;0.70;;
789;SDS011;378;48.844;9.156;2023-04-28T11:59:00;1.55;;;0.77;;
789;SDS011;378;48.844;9.156;2023-04-28T12:01:28;0.77;;;0.70;;
789;SDS011;378;48.844;9.156;2023-04-28T12:03:56;0.73;;;0.60;;
789;SDS011;378;48.844;9.156;2023-04-28T12:06:23;2.85;;;0.70;;
789;SDS011;378;48.844;9.156;2023-04-28T12:08:49;0.70;;;0.70;;
789;SDS011;378;48.844;9.156;2023-04-28T12:11:18;1.17;;;0.75;;
789;SDS011;378;48.844;9.156;2023-04-28T12:16:40;1.50;;;0.75;;
789;SDS011;378;48.844;9.156;2023-04-28T12:19:09;0.85;;;0.60;;
789;SDS011;378;48.844;9.156;2023-04-28T12:21:37;1.77;;;0.80;;
789;SDS011;378;48.844;9.156;2023-04-28T12:24:17;2.35;;;0.93;;
789;SDS011;378;48.844;9.156;2023-04-28T12:26:47;1.70;;;1.20;;
789;SDS011;378;48.844;9.156;2023-04-28T12:32:04;2.17;;;1.27;;
789;SDS011;378;48.844;9.156;2023-04-28T12:34:31;2.30;;;1.58;;
789;SDS011;378;48.844;9.156;2023-04-28T12:36:59;3.13;;;1.70;;
789;SDS011;378;48.844;9.156;2023-04-28T12:39:26;6.80;;;1.33;;
789;SDS011;378;48.844;9.156;2023-04-28T12:41:54;1.65;;;1.20;;
789;SDS011;378;48.844;9.156;2023-04-28T12:44:23;2.25;;;0.95;;
789;SDS011;378;48.844;9.156;2023-04-28T12:46:52;2.10;;;0.77;;
789;SDS011;378;48.844;9.156;2023-04-28T12:49:19;0.98;;;0.70;;
789;SDS011;378;48.844;9.156;2023-04-28T12:51:46;0.77;;;0.45;;
789;SDS011;378;48.844;9.156;2023-04-28T12:54:13;1.63;;;0.60;;
789;SDS011;378;48.844;9.156;2023-04-28T12:56:39;1.33;;;0.65;;
789;SDS011;378;48.844;9.156;2023-04-28T12:59:08;3.13;;;0.73;;
789;SDS011;378;48.844;9.156;2023-04-28T13:01:35;1.45;;;0.77;;
789;SDS011;378;48.844;9.156;2023-04-28T13:04:02;1.42;;;0.70;;
789;SDS011;378;48.844;9.156;2023-04-28T13:06:29;0.82;;;0.60;;
789;SDS011;378;48.844;9.156;2023-04-28T13:08:56;0.50;;;0.50;;
789;SDS011;378;48.844;9.156;2023-04-28T13:11:23;0.68;;;0.50;;
789;SDS011;378;48.844;9.156;2023-04-28T13:13:52;2.05;;;0.60;;
789;SDS011;378;48.844;9.156;2023-04-28T13:16:22;2.55;;;0.63;;
789;SDS011;378;48.844;9.156;2023-04-28T13:18:53;1.08;;;0.50;;
789;SDS011;378;48.844;9.156;2023-04-28T13:21:21;0.60;;;0.60;;
789;SDS011;378;48.844;9.156;2023-04-28T13:23:50;3.70;;;0.50;;
789;SDS011;378;48.844;9.156;2023-04-28T13:26:17;1.52;;;0.40;;
789;SDS011;378;48.844;9.156;2023-04-28T13:28:45;0.55;;;0.43;;
789;SDS011;378;48.844;9.156;2023-04-28T13:31:12;0.90;;;0.57;;
789;SDS011;378;48.844;9.156;2023-04-28T13:33:40;1.13;;;0.50;;
789;SDS011;378;48.844;9.156;2023-04-28T13:36:07;0.60;;;0.52;;
789;SDS011;378;48.844;9.156;2023-04-28T13:38:34;0.50;;;0.50;;
789;SDS011;378;48.844;9.156;2023-04-28T13:41:01;1.13;;;0.57;;
789;SDS011;378;48.844;9.156;2023-04-28T13:43:28;0.50;;;0.50;;
789;SDS011;378;48.844;9.156;2023-04-28T13:45:55;0.85;;;0.60;;
789;SDS011;378;48.844;9.156;2023-04-28T13:48:22;0.50;;;0.50;;
789;SDS011;378;48.844;9.156;2023-04-28T13:50:50;1.27;;;0.80;;
789;SDS011;378;48.844;9.156;2023-04-28T13:53:17;1.38;;;0.80;;
789;SDS011;378;48.844;9.156;2023-04-28T13:55:44;2.67;;;0.88;;
789;SDS011;378;48.844;9.156;2023-04-28T13:58:11;0.98;;;0.50;;
789;SDS011;378;48.844;9.156;2023-04-28T14:00:38;1.55;;;0.98;;
789;SDS011;378;48.844;9.156;2023-04-28T14:03:05;2.00;;;0.80;;
789;SDS011;378;48.844;9.156;2023-04-28T14:05:33;2.35;;;1.13;;
789;SDS011;378;48.844;9.156;2023-04-28T14:08:03;4.50;;;1.83;;
789;SDS011;378;48.844;9.156;2023-04-28T14:10:30;4.68;;;1.30;;
789;SDS011;378;48.844;9.156;2023-04-28T14:12:57;3.72;;;1.40;;
789;SDS011;378;48.844;9.156;2023-04-28T14:15:24;3.85;;;1.50;;
789;SDS011;378;48.844;9.156;2023-04-28T14:17:50;8.07;;;2.15;;
789;SDS011;378;48.844;9.156;2023-04-28T14:20:17;4.65;;;1.90;;
789;SDS011;378;48.844;9.156;2023-04-28T14:22:44;2.97;;;1.60;;
789;SDS011;378;48.844;9.156;2023-04-28T14:25:12;4.25;;;1.80;;
789;SDS011;378;48.844;9.156;2023-04-28T14:27:39;3.88;;;1.80;;
789;SDS011;378;48.844;9.156;2023-04-28T14:30:07;4.90;;;2.10;;
789;SDS011;378;48.844;9.156;2023-04-28T14:32:36;7.13;;;2.40;;
789;SDS011;378;48.844;9.156;2023-04-28T14:35:04;5.03;;;2.58;;
789;SDS011;378;48.844;9.156;2023-04-28T14:37:31;5.28;;;2.58;;
789;SDS011;378;48.844;9.156;2023-04-28T14:39:58;4.60;;;2.53;;
789;SDS011;378;48.844;9.156;2023-04-28T14:42:28;4.63;;;2.83;;
789;SDS011;378;48.844;9.156;2023-04-28T14:44:57;4.90;;;3.03;;
789;SDS011;378;48.844;9.156;2023-04-28T14:47:24;7.93;;;3.75;;
789;SDS011;378;48.844;9.156;2023-04-28T14:49:52;5.72;;;2.90;;
789;SDS011;378;48.844;9.156;2023-04-28T14:52:19;7.90;;;2.70;;
789;SDS011;378;48.844;9.156;2023-04-28T14:54:47;5.13;;;3.08;;
789;SDS011;378;48.844;9.156;2023-04-28T14:57:13;6.65;;;2.60;;
789;SDS011;378;48.844;9.156;2023-04-28T14:59:42;7.35;;;3.25;;
789;SDS011;378;48.844;9.156;2023-04-28T15:02:09;8.30;;;3.28;;
789;SDS011;378;48.844;9.156;2023-04-28T15:04:37;5.03;;;2.95;;
789;SDS011;378;48.844;9.156;2023-04-28T15:07:04;7.80;;;3.60;;
789;SDS011;378;48.844;9.156;2023-04-28T15:09:32;7.82;;;3.80;;
789;SDS011;378;48.844;9.156;2023-04-28T15:11:59;10.60;;;4.00;;
789;SDS011;378;48.844;9.156;2023-04-28T15:14:26;7.13;;;3.17;;
789;SDS011;378;48.844;9.156;2023-04-28T15:16:55;7.15;;;3.75;;
789;SDS011;378;48.844;9.156;2023-04-28T15:19:21;7.35;;;3.50;;
789;SDS011;378;48.844;9.156;2023-04-28T15:21:49;9.38;;;3.30;;
789;SDS011;378;48.844;9.156;2023-04-28T15:24:17;3.60;;;2.30;;
789;SDS011;378;48.844;9.156;2023-04-28T15:26:44;4.85;;;1.77;;
789;SDS011;378;48.844;9.156;2023-04-28T15:29:11;4.22;;;1.40;;
789;SDS011;378;48.844;9.156;2023-04-28T15:31:38;2.47;;;1.77;;
789;SDS011;378;48.844;9.156;2023-04-28T15:34:07;7.30;;;3.47;;
789;SDS011;378;48.844;9.156;2023-04-28T15:36:35;6.35;;;3.13;;
789;SDS011;378;48.844;9.156;2023-04-28T15:39:03;5.78;;;1.77;;
789;SDS011;378;48.844;9.156;2023-04-28T15:41:30;2.05;;;0.98;;
789;SDS011;378;48.844;9.156;2023-04-28T15:43:57;2.78;;;0.70;;
789;SDS011;378;48.844;9.156;2023-04-28T15:46:25;1.50;;;0.85;;
789;SDS011;378;48.844;9.156;2023-04-28T15:48:52;3.13;;;0.80;;
789;SDS011;378;48.844;9.156;2023-04-28T15:51:20;1.25;;;0.70;;
789;SDS011;378;48.844;9.156;2023-04-28T15:53:47;2.33;;;0.60;;
789;SDS011;378;48.844;9.156;2023-04-28T15:56:15;3.65;;;0.68;;
789;SDS011;378;48.844;9.156;2023-04-28T15:58:42;1.08;;;0.65;;
789;SDS011;378;48.844;9.156;2023-04-28T16:01:08;2.45;;;0.60;;
789;SDS011;378;48.844;9.156;2023-04-28T16:03:35;2.28;;;0.57;;
789;SDS011;378;48.844;9.156;2023-04-28T16:06:03;1.17;;;0.60;;